sensor_id;sensor_type;location;lat;lon;timestamp;pressure;altitude;pressure_sealevel;temperature;humidity
21879;BME280;27908;42.708;23.278;2023-11-19T00:00:10;49716.09;;;-136.69;64.38
21879;BME280;27908;42.708;23.278;2023-11-19T00:02:40;49690.50;;;-136.69;63.87
21879;BME280;27908;42.708;23.278;2023-11-19T00:05:06;49688.53;;;-136.69;64.31
21879;BME280;27908;42.708;23.278;2023-11-19T00:07:36;49696.41;;;-136.69;63.96
21879;BME280;27908;42.708;23.278;2023-11-19T00:10:02;49700.34;;;-136.69;63.04
21879;BME280;27908;42.708;23.278;2023-11-19T00:12:32;49706.25;;;-136.69;63.02
21879;BME280;27908;42.708;23.278;2023-11-19T00:14:57;49706.25;;;-136.69;63.27
21879;BME280;27908;42.708;23.278;2023-11-19T00:17:23;49670.81;;;-136.69;62.71
21879;BME280;27908;42.708;23.278;2023-11-19T00:19:48;49684.59;;;-136.69;62.95
21879;BME280;27908;42.708;23.278;2023-11-19T00:22:16;49688.53;;;-136.69;62.99
21879;BME280;27908;42.708;23.278;2023-11-19T00:24:42;49688.53;;;-136.69;62.77
21879;BME280;27908;42.708;23.278;2023-11-19T00:27:07;49684.59;;;-136.69;63.08
21879;BME280;27908;42.708;23.278;2023-11-19T00:29:33;49672.78;;;-136.69;63.16
21879;BME280;27908;42.708;23.278;2023-11-19T00:31:58;49682.63;;;-136.69;63.68
21879;BME280;27908;42.708;23.278;2023-11-19T00:34:24;49696.41;;;-136.69;63.90
21879;BME280;27908;42.708;23.278;2023-11-19T00:36:49;49700.34;;;-136.69;63.00
21879;BME280;27908;42.708;23.278;2023-11-19T00:39:15;49686.56;;;-136.69;63.72
21879;BME280;27908;42.708;23.278;2023-11-19T00:41:41;49688.53;;;-136.69;63.10
21879;BME280;27908;42.708;23.278;2023-11-19T00:44:06;49682.63;;;-136.69;63.30
21879;BME280;27908;42.708;23.278;2023-11-19T00:46:31;49710.19;;;-136.69;64.02
21879;BME280;27908;42.708;23.278;2023-11-19T00:48:58;49688.53;;;-136.69;63.53
21879;BME280;27908;42.708;23.278;2023-11-19T00:51:25;49692.47;;;-136.69;63.71
21879;BME280;27908;42.708;23.278;2023-11-19T00:53:51;49700.34;;;-136.69;63.95
21879;BME280;27908;42.708;23.278;2023-11-19T00:56:18;49684.59;;;-136.69;64.03
21879;BME280;27908;42.708;23.278;2023-11-19T00:58:44;49696.41;;;-136.69;63.56
21879;BME280;27908;42.708;23.278;2023-11-19T01:01:14;49680.66;;;-136.69;64.39
21879;BME280;27908;42.708;23.278;2023-11-19T01:03:39;49700.34;;;-136.69;64.30
21879;BME280;27908;42.708;23.278;2023-11-19T01:06:05;49690.50;;;-136.69;64.39
21879;BME280;27908;42.708;23.278;2023-11-19T01:08:31;49735.78;;;-136.69;64.87
21879;BME280;27908;42.708;23.278;2023-11-19T01:10:56;49716.09;;;-136.69;63.82
21879;BME280;27908;42.708;23.278;2023-11-19T01:13:22;49678.69;;;-136.69;64.15
21879;BME280;27908;42.708;23.278;2023-11-19T01:15:47;49694.44;;;-136.69;64.25
21879;BME280;27908;42.708;23.278;2023-11-19T01:18:13;49666.88;;;-136.69;63.56
21879;BME280;27908;42.708;23.278;2023-11-19T01:20:38;49688.53;;;-136.69;63.59
21879;BME280;27908;42.708;23.278;2023-11-19T01:23:04;49692.47;;;-136.69;63.92
21879;BME280;27908;42.708;23.278;2023-11-19T01:25:29;49704.28;;;-136.69;63.11
21879;BME280;27908;42.708;23.278;2023-11-19T01:27:55;49696.41;;;-136.69;64.00
21879;BME280;27908;42.708;23.278;2023-11-19T01:30:23;49682.63;;;-136.69;63.40
21879;BME280;27908;42.708;23.278;2023-11-19T01:32:49;49812.56;;;-136.69;64.12
21879;BME280;27908;42.708;23.278;2023-11-19T01:35:14;49690.50;;;-136.69;63.31
21879;BME280;27908;42.708;23.278;2023-11-19T01:37:40;49702.31;;;-136.69;63.20
21879;BME280;27908;42.708;23.278;2023-11-19T01:40:06;49698.38;;;-136.69;62.85
21879;BME280;27908;42.708;23.278;2023-11-19T01:42:39;49725.94;;;-136.69;62.35
21879;BME280;27908;42.708;23.278;2023-11-19T01:45:04;49682.63;;;-136.69;63.14
21879;BME280;27908;42.708;23.278;2023-11-19T01:47:33;49698.38;;;-136.69;62.95
21879;BME280;27908;42.708;23.278;2023-11-19T01:49:59;49688.53;;;-136.69;62.77
21879;BME280;27908;42.708;23.278;2023-11-19T01:52:25;49688.53;;;-136.69;62.18
21879;BME280;27908;42.708;23.278;2023-11-19T01:54:52;49692.47;;;-136.69;62.45
21879;BME280;27908;42.708;23.278;2023-11-19T01:57:20;49682.63;;;-136.69;61.35
21879;BME280;27908;42.708;23.278;2023-11-19T01:59:46;49702.31;;;-136.69;61.48
21879;BME280;27908;42.708;23.278;2023-11-19T02:02:12;49702.31;;;-136.69;61.58
21879;BME280;27908;42.708;23.278;2023-11-19T02:04:38;49670.81;;;-136.69;61.13
21879;BME280;27908;42.708;23.278;2023-11-19T02:07:04;49676.72;;;-136.69;61.88
21879;BME280;27908;42.708;23.278;2023-11-19T02:09:30;49698.38;;;-136.69;61.65
21879;BME280;27908;42.708;23.278;2023-11-19T02:11:55;49680.66;;;-136.69;60.67
21879;BME280;27908;42.708;23.278;2023-11-19T02:14:25;49684.59;;;-136.69;61.37
21879;BME280;27908;42.708;23.278;2023-11-19T02:16:51;49690.50;;;-136.69;61.00
21879;BME280;27908;42.708;23.278;2023-11-19T02:19:19;49680.66;;;-136.69;61.18
21879;BME280;27908;42.708;23.278;2023-11-19T02:21:45;49706.25;;;-136.69;61.30
21879;BME280;27908;42.708;23.278;2023-11-19T02:24:11;49702.31;;;-136.69;61.83
21879;BME280;27908;42.708;23.278;2023-11-19T02:29:49;49698.38;;;-136.69;62.63
21879;BME280;27908;42.708;23.278;2023-11-19T02:32:15;49702.31;;;-136.69;62.20
21879;BME280;27908;42.708;23.278;2023-11-19T02:34:40;49668.84;;;-136.69;62.63
21879;BME280;27908;42.708;23.278;2023-11-19T02:37:06;49688.53;;;-136.69;62.75
21879;BME280;27908;42.708;23.278;2023-11-19T02:39:31;49682.63;;;-136.69;63.46
21879;BME280;27908;42.708;23.278;2023-11-19T02:41:57;49686.56;;;-136.69;63.45
21879;BME280;27908;42.708;23.278;2023-11-19T02:44:22;49682.63;;;-136.69;63.82
21879;BME280;27908;42.708;23.278;2023-11-19T02:46:48;49694.44;;;-136.69;64.51
21879;BME280;27908;42.708;23.278;2023-11-19T02:49:14;49690.50;;;-136.69;63.63
21879;BME280;27908;42.708;23.278;2023-11-19T02:51:40;49688.53;;;-136.69;64.54
21879;BME280;27908;42.708;23.278;2023-11-19T02:54:06;49741.69;;;-136.69;64.45
21879;BME280;27908;42.708;23.278;2023-11-19T02:56:31;49686.56;;;-136.69;64.52
21879;BME280;27908;42.708;23.278;2023-11-19T02:59:01;49698.38;;;-136.69;64.32
21879;BME280;27908;42.708;23.278;2023-11-19T03:01:40;49682.63;;;-136.69;64.08
21879;BME280;27908;42.708;23.278;2023-11-19T03:04:09;49686.56;;;-136.69;63.89
21879;BME280;27908;42.708;23.278;2023-11-19T03:06:37;49690.50;;;-136.69;63.63
21879;BME280;27908;42.708;23.278;2023-11-19T03:09:02;49708.22;;;-136.69;64.07
21879;BME280;27908;42.708;23.278;2023-11-19T03:11:33;49690.50;;;-136.69;64.36
21879;BME280;27908;42.708;23.278;2023-11-19T03:13:58;49666.88;;;-136.69;64.55
21879;BME280;27908;42.708;23.278;2023-11-19T03:16:24;49676.72;;;-136.69;64.55
21879;BME280;27908;42.708;23.278;2023-11-19T03:18:49;49781.06;;;-136.69;64.86
21879;BME280;27908;42.708;23.278;2023-11-19T03:21:15;49682.63;;;-136.69;64.50
21879;BME280;27908;42.708;23.278;2023-11-19T03:23:40;49698.38;;;-136.69;64.63
21879;BME280;27908;42.708;23.278;2023-11-19T03:26:06;49688.53;;;-136.69;64.00
21879;BME280;27908;42.708;23.278;2023-11-19T03:28:32;49706.25;;;-136.69;63.96
21879;BME280;27908;42.708;23.278;2023-11-19T03:30:57;49704.28;;;-136.69;64.02
21879;BME280;27908;42.708;23.278;2023-11-19T03:33:23;49698.38;;;-136.69;63.45
21879;BME280;27908;42.708;23.278;2023-11-19T03:35:48;49702.31;;;-136.69;63.32
21879;BME280;27908;42.708;23.278;2023-11-19T03:38:13;49716.09;;;-136.69;63.45
21879;BME280;27908;42.708;23.278;2023-11-19T03:40:39;49678.69;;;-136.69;63.90
21879;BME280;27908;42.708;23.278;2023-11-19T03:43:06;49690.50;;;-136.69;63.80
21879;BME280;27908;42.708;23.278;2023-11-19T03:45:31;49684.59;;;-136.69;63.83
21879;BME280;27908;42.708;23.278;2023-11-19T03:47:57;49704.28;;;-136.69;63.68
21879;BME280;27908;42.708;23.278;2023-11-19T03:50:22;49706.25;;;-136.69;63.57
21879;BME280;27908;42.708;23.278;2023-11-19T03:52:49;49700.34;;;-136.69;62.89
21879;BME280;27908;42.708;23.278;2023-11-19T03:55:14;49660.97;;;-136.69;62.74
21879;BME280;27908;42.708;23.278;2023-11-19T03:57:40;49700.34;;;-136.69;62.92
21879;BME280;27908;42.708;23.278;2023-11-19T04:00:06;49682.63;;;-136.69;62.89
21879;BME280;27908;42.708;23.278;2023-11-19T04:02:35;49696.41;;;-136.69;62.67
21879;BME280;27908;42.708;23.278;2023-11-19T04:05:01;49682.63;;;-136.69;62.71
21879;BME280;27908;42.708;23.278;2023-11-19T04:07:26;49676.72;;;-136.69;61.99
21879;BME280;27908;42.708;23.278;2023-11-19T04:09:52;49702.31;;;-136.69;61.68
21879;BME280;27908;42.708;23.278;2023-11-19T04:12:18;49672.78;;;-136.69;62.39
21879;BME280;27908;42.708;23.278;2023-11-19T04:14:43;49725.94;;;-136.69;61.83
21879;BME280;27908;42.708;23.278;2023-11-19T04:17:09;49692.47;;;-136.69;62.02
21879;BME280;27908;42.708;23.278;2023-11-19T04:19:34;49682.63;;;-136.69;62.33
21879;BME280;27908;42.708;23.278;2023-11-19T04:22:00;49698.38;;;-136.69;62.81
21879;BME280;27908;42.708;23.278;2023-11-19T04:24:25;49694.44;;;-136.69;62.33
21879;BME280;27908;42.708;23.278;2023-11-19T04:26:51;49725.94;;;-136.69;61.65
21879;BME280;27908;42.708;23.278;2023-11-19T04:29:17;49678.69;;;-136.69;61.72
21879;BME280;27908;42.708;23.278;2023-11-19T04:31:43;49690.50;;;-136.69;62.35
21879;BME280;27908;42.708;23.278;2023-11-19T04:34:12;49714.13;;;-136.69;62.42
21879;BME280;27908;42.708;23.278;2023-11-19T04:36:38;49714.13;;;-136.69;61.82
21879;BME280;27908;42.708;23.278;2023-11-19T04:39:04;49690.50;;;-136.69;62.30
21879;BME280;27908;42.708;23.278;2023-11-19T04:41:35;49737.75;;;-136.69;61.94
21879;BME280;27908;42.708;23.278;2023-11-19T04:44:01;49676.72;;;-136.69;61.80
21879;BME280;27908;42.708;23.278;2023-11-19T04:46:26;49690.50;;;-136.69;62.55
21879;BME280;27908;42.708;23.278;2023-11-19T04:48:51;49688.53;;;-136.69;62.49
21879;BME280;27908;42.708;23.278;2023-11-19T04:51:17;49694.44;;;-136.69;61.62
21879;BME280;27908;42.708;23.278;2023-11-19T04:53:42;49694.44;;;-136.69;62.61
21879;BME280;27908;42.708;23.278;2023-11-19T04:56:09;49664.91;;;-136.69;62.33
21879;BME280;27908;42.708;23.278;2023-11-19T04:58:35;49688.53;;;-136.69;61.55
21879;BME280;27908;42.708;23.278;2023-11-19T05:01:01;49676.72;;;-136.69;62.23
21879;BME280;27908;42.708;23.278;2023-11-19T05:03:27;49704.28;;;-136.69;61.51
21879;BME280;27908;42.708;23.278;2023-11-19T05:05:52;49672.78;;;-136.69;61.05
21879;BME280;27908;42.708;23.278;2023-11-19T05:08:18;49680.66;;;-136.69;61.10
21879;BME280;27908;42.708;23.278;2023-11-19T05:10:44;49704.28;;;-136.69;61.14
21879;BME280;27908;42.708;23.278;2023-11-19T05:13:09;49708.22;;;-136.69;61.61
21879;BME280;27908;42.708;23.278;2023-11-19T05:15:35;49702.31;;;-136.69;61.05
21879;BME280;27908;42.708;23.278;2023-11-19T05:18:00;49714.13;;;-136.69;61.23
21879;BME280;27908;42.708;23.278;2023-11-19T05:20:26;49680.66;;;-136.69;61.33
21879;BME280;27908;42.708;23.278;2023-11-19T05:22:51;49698.38;;;-136.69;61.54
21879;BME280;27908;42.708;23.278;2023-11-19T05:25:18;49704.28;;;-136.69;61.63
21879;BME280;27908;42.708;23.278;2023-11-19T05:27:45;49676.72;;;-136.69;61.49
21879;BME280;27908;42.708;23.278;2023-11-19T05:30:11;49710.19;;;-136.69;62.14
21879;BME280;27908;42.708;23.278;2023-11-19T05:32:36;49704.28;;;-136.69;61.74
21879;BME280;27908;42.708;23.278;2023-11-19T05:35:02;49662.94;;;-136.69;61.33
21879;BME280;27908;42.708;23.278;2023-11-19T05:37:28;49662.94;;;-136.69;61.50
21879;BME280;27908;42.708;23.278;2023-11-19T05:39:53;49686.56;;;-136.69;61.50
21879;BME280;27908;42.708;23.278;2023-11-19T05:42:19;49670.81;;;-136.69;60.79
21879;BME280;27908;42.708;23.278;2023-11-19T05:44:44;49700.34;;;-136.69;61.37
21879;BME280;27908;42.708;23.278;2023-11-19T05:47:09;49700.34;;;-136.69;61.53
21879;BME280;27908;42.708;23.278;2023-11-19T05:49:35;49670.81;;;-136.69;61.42
21879;BME280;27908;42.708;23.278;2023-11-19T05:52:00;49680.66;;;-136.69;62.19
21879;BME280;27908;42.708;23.278;2023-11-19T05:54:28;49684.59;;;-136.69;60.88
21879;BME280;27908;42.708;23.278;2023-11-19T05:56:53;49664.91;;;-136.69;61.23
21879;BME280;27908;42.708;23.278;2023-11-19T05:59:20;49686.56;;;-136.69;61.73
21879;BME280;27908;42.708;23.278;2023-11-19T06:01:45;49655.06;;;-136.69;62.50
21879;BME280;27908;42.708;23.278;2023-11-19T06:04:11;49670.81;;;-136.69;61.83
21879;BME280;27908;42.708;23.278;2023-11-19T06:06:37;49676.72;;;-136.69;61.08
21879;BME280;27908;42.708;23.278;2023-11-19T06:09:03;49690.50;;;-136.69;61.88
21879;BME280;27908;42.708;23.278;2023-11-19T06:11:29;49678.69;;;-136.69;62.23
21879;BME280;27908;42.708;23.278;2023-11-19T06:13:54;49700.34;;;-136.69;62.00
21879;BME280;27908;42.708;23.278;2023-11-19T06:16:20;49692.47;;;-136.69;62.13
21879;BME280;27908;42.708;23.278;2023-11-19T06:18:45;49664.91;;;-136.69;62.23
21879;BME280;27908;42.708;23.278;2023-11-19T06:21:12;49678.69;;;-136.69;62.78
21879;BME280;27908;42.708;23.278;2023-11-19T06:23:37;49686.56;;;-136.69;62.70
21879;BME280;27908;42.708;23.278;2023-11-19T06:26:03;49708.22;;;-136.69;62.38
21879;BME280;27908;42.708;23.278;2023-11-19T06:28:30;49696.41;;;-136.69;62.42
21879;BME280;27908;42.708;23.278;2023-11-19T06:30:56;49692.47;;;-136.69;62.74
21879;BME280;27908;42.708;23.278;2023-11-19T06:33:23;49698.38;;;-136.69;62.27
21879;BME280;27908;42.708;23.278;2023-11-19T06:35:48;49674.75;;;-136.69;62.44
21879;BME280;27908;42.708;23.278;2023-11-19T06:38:14;49696.41;;;-136.69;61.93
21879;BME280;27908;42.708;23.278;2023-11-19T06:40:40;49704.28;;;-136.69;61.51
21879;BME280;27908;42.708;23.278;2023-11-19T06:43:06;49662.94;;;-136.69;62.12
21879;BME280;27908;42.708;23.278;2023-11-19T06:45:33;49700.34;;;-136.69;61.70
21879;BME280;27908;42.708;23.278;2023-11-19T06:48:01;49704.28;;;-136.69;61.21
21879;BME280;27908;42.708;23.278;2023-11-19T06:50:28;49684.59;;;-136.69;61.26
21879;BME280;27908;42.708;23.278;2023-11-19T06:52:53;49704.28;;;-136.69;60.93
21879;BME280;27908;42.708;23.278;2023-11-19T06:55:19;49704.28;;;-136.69;61.34
21879;BME280;27908;42.708;23.278;2023-11-19T06:57:44;49684.59;;;-136.69;60.95
21879;BME280;27908;42.708;23.278;2023-11-19T07:00:10;49680.66;;;-136.69;61.07
21879;BME280;27908;42.708;23.278;2023-11-19T07:02:36;49682.63;;;-136.69;60.84
21879;BME280;27908;42.708;23.278;2023-11-19T07:05:02;49686.56;;;-136.69;60.55
21879;BME280;27908;42.708;23.278;2023-11-19T07:07:31;49702.31;;;-136.69;60.60
21879;BME280;27908;42.708;23.278;2023-11-19T07:09:57;49676.72;;;-136.69;60.53
21879;BME280;27908;42.708;23.278;2023-11-19T07:12:22;49680.66;;;-136.69;60.49
21879;BME280;27908;42.708;23.278;2023-11-19T07:14:48;49706.25;;;-136.69;60.42
21879;BME280;27908;42.708;23.278;2023-11-19T07:17:13;49692.47;;;-136.69;61.63
21879;BME280;27908;42.708;23.278;2023-11-19T07:19:39;49670.81;;;-136.69;60.11
21879;BME280;27908;42.708;23.278;2023-11-19T07:22:04;49672.78;;;-136.69;60.57
21879;BME280;27908;42.708;23.278;2023-11-19T07:24:31;49727.91;;;-136.69;61.00
21879;BME280;27908;42.708;23.278;2023-11-19T07:26:56;49680.66;;;-136.69;60.29
21879;BME280;27908;42.708;23.278;2023-11-19T07:29:22;49700.34;;;-136.69;60.00
21879;BME280;27908;42.708;23.278;2023-11-19T07:31:50;49694.44;;;-136.69;60.08
21879;BME280;27908;42.708;23.278;2023-11-19T07:34:16;49676.72;;;-136.69;59.69
21879;BME280;27908;42.708;23.278;2023-11-19T07:36:41;49692.47;;;-136.69;59.41
21879;BME280;27908;42.708;23.278;2023-11-19T07:39:07;49710.19;;;-136.69;59.96
21879;BME280;27908;42.708;23.278;2023-11-19T07:41:33;49657.03;;;-136.69;59.09
21879;BME280;27908;42.708;23.278;2023-11-19T07:43:59;49696.41;;;-136.69;59.90
21879;BME280;27908;42.708;23.278;2023-11-19T07:46:24;49704.28;;;-136.69;59.09
21879;BME280;27908;42.708;23.278;2023-11-19T07:48:50;49657.03;;;-136.69;58.80
21879;BME280;27908;42.708;23.278;2023-11-19T07:51:16;49676.72;;;-136.69;58.67
21879;BME280;27908;42.708;23.278;2023-11-19T07:53:41;49692.47;;;-136.69;57.99
21879;BME280;27908;42.708;23.278;2023-11-19T07:56:08;49672.78;;;-136.69;57.67
21879;BME280;27908;42.708;23.278;2023-11-19T07:58:35;49686.56;;;-136.69;58.64
21879;BME280;27908;42.708;23.278;2023-11-19T08:01:01;49710.19;;;-136.69;58.37
21879;BME280;27908;42.708;23.278;2023-11-19T08:03:29;49682.63;;;-136.69;58.91
21879;BME280;27908;42.708;23.278;2023-11-19T08:05:57;49692.47;;;-136.69;58.35
21879;BME280;27908;42.708;23.278;2023-11-19T08:08:22;49670.81;;;-136.69;58.33
21879;BME280;27908;42.708;23.278;2023-11-19T08:10:48;49682.63;;;-136.69;58.29
21879;BME280;27908;42.708;23.278;2023-11-19T08:13:14;49684.59;;;-136.69;57.30
21879;BME280;27908;42.708;23.278;2023-11-19T08:15:39;49722.00;;;-136.69;58.32
21879;BME280;27908;42.708;23.278;2023-11-19T08:18:06;49686.56;;;-136.69;59.05
21879;BME280;27908;42.708;23.278;2023-11-19T08:20:32;49688.53;;;-136.69;58.42
21879;BME280;27908;42.708;23.278;2023-11-19T08:22:58;49682.63;;;-136.69;58.80
21879;BME280;27908;42.708;23.278;2023-11-19T08:25:23;49672.78;;;-136.69;59.25
21879;BME280;27908;42.708;23.278;2023-11-19T08:27:49;49690.50;;;-136.69;58.85
21879;BME280;27908;42.708;23.278;2023-11-19T08:30:14;49682.63;;;-136.69;59.02
21879;BME280;27908;42.708;23.278;2023-11-19T08:32:40;49676.72;;;-136.69;59.90
21879;BME280;27908;42.708;23.278;2023-11-19T08:35:06;49684.59;;;-136.69;58.99
21879;BME280;27908;42.708;23.278;2023-11-19T08:37:31;49692.47;;;-136.69;58.60
21879;BME280;27908;42.708;23.278;2023-11-19T08:39:57;49692.47;;;-136.69;58.54
21879;BME280;27908;42.708;23.278;2023-11-19T08:42:23;49657.03;;;-136.69;58.80
21879;BME280;27908;42.708;23.278;2023-11-19T08:44:49;49682.63;;;-136.69;58.90
21879;BME280;27908;42.708;23.278;2023-11-19T08:47:18;49660.97;;;-136.69;58.55
21879;BME280;27908;42.708;23.278;2023-11-19T08:49:44;49672.78;;;-136.69;58.63
21879;BME280;27908;42.708;23.278;2023-11-19T08:52:10;49694.44;;;-136.69;58.07
21879;BME280;27908;42.708;23.278;2023-11-19T08:54:42;49680.66;;;-136.69;57.27
21879;BME280;27908;42.708;23.278;2023-11-19T08:57:08;49716.09;;;-136.69;58.05
21879;BME280;27908;42.708;23.278;2023-11-19T08:59:34;49649.16;;;-136.69;57.75
21879;BME280;27908;42.708;23.278;2023-11-19T09:01:59;49690.50;;;-136.69;57.49
21879;BME280;27908;42.708;23.278;2023-11-19T09:04:25;49690.50;;;-136.69;57.11
21879;BME280;27908;42.708;23.278;2023-11-19T09:06:50;49676.72;;;-136.69;57.49
21879;BME280;27908;42.708;23.278;2023-11-19T09:09:16;49670.81;;;-136.69;56.73
21879;BME280;27908;42.708;23.278;2023-11-19T09:11:41;49668.84;;;-136.69;56.51
21879;BME280;27908;42.708;23.278;2023-11-19T09:14:07;49676.72;;;-136.69;57.34
21879;BME280;27908;42.708;23.278;2023-11-19T09:16:33;49684.59;;;-136.69;56.97
21879;BME280;27908;42.708;23.278;2023-11-19T09:18:58;49668.84;;;-136.69;56.45
21879;BME280;27908;42.708;23.278;2023-11-19T09:21:25;49678.69;;;-136.69;56.49
21879;BME280;27908;42.708;23.278;2023-11-19T09:23:51;49694.44;;;-136.69;56.18
21879;BME280;27908;42.708;23.278;2023-11-19T09:26:16;49773.19;;;-136.69;56.80
21879;BME280;27908;42.708;23.278;2023-11-19T09:28:42;49676.72;;;-136.69;56.23
21879;BME280;27908;42.708;23.278;2023-11-19T09:31:17;49694.44;;;-136.69;57.12
21879;BME280;27908;42.708;23.278;2023-11-19T09:33:43;49696.41;;;-136.69;56.11
21879;BME280;27908;42.708;23.278;2023-11-19T09:36:09;49680.66;;;-136.69;55.60
21879;BME280;27908;42.708;23.278;2023-11-19T09:38:37;49682.63;;;-136.69;55.48
21879;BME280;27908;42.708;23.278;2023-11-19T09:41:06;49696.41;;;-136.69;55.26
21879;BME280;27908;42.708;23.278;2023-11-19T09:43:37;49696.41;;;-136.69;55.33
21879;BME280;27908;42.708;23.278;2023-11-19T09:46:05;49700.34;;;-136.69;55.02
21879;BME280;27908;42.708;23.278;2023-11-19T09:48:36;49686.56;;;-136.69;55.58
21879;BME280;27908;42.708;23.278;2023-11-19T09:51:09;49688.53;;;-136.69;55.29
21879;BME280;27908;42.708;23.278;2023-11-19T09:53:36;49690.50;;;-136.69;54.63
21879;BME280;27908;42.708;23.278;2023-11-19T09:56:02;49702.31;;;-136.69;54.15
21879;BME280;27908;42.708;23.278;2023-11-19T09:58:29;49674.75;;;-136.69;53.77
21879;BME280;27908;42.708;23.278;2023-11-19T10:00:55;49702.31;;;-136.69;54.26
21879;BME280;27908;42.708;23.278;2023-11-19T10:03:23;49668.84;;;-136.69;53.98
21879;BME280;27908;42.708;23.278;2023-11-19T10:05:49;49698.38;;;-136.69;54.21
21879;BME280;27908;42.708;23.278;2023-11-19T10:08:15;49692.47;;;-136.69;54.36
21879;BME280;27908;42.708;23.278;2023-11-19T10:10:41;49704.28;;;-136.69;54.63
21879;BME280;27908;42.708;23.278;2023-11-19T10:13:07;49710.19;;;-136.69;53.95
21879;BME280;27908;42.708;23.278;2023-11-19T10:15:36;49668.84;;;-136.69;53.36
21879;BME280;27908;42.708;23.278;2023-11-19T10:18:02;49698.38;;;-136.69;53.87
21879;BME280;27908;42.708;23.278;2023-11-19T10:20:35;49723.97;;;-136.69;53.53
21879;BME280;27908;42.708;23.278;2023-11-19T10:23:02;49692.47;;;-136.69;53.85
21879;BME280;27908;42.708;23.278;2023-11-19T10:25:29;49720.03;;;-136.69;54.33
21879;BME280;27908;42.708;23.278;2023-11-19T10:27:56;49672.78;;;-136.69;55.00
21879;BME280;27908;42.708;23.278;2023-11-19T10:30:26;49735.78;;;-136.69;54.54
21879;BME280;27908;42.708;23.278;2023-11-19T10:33:06;49727.91;;;-136.69;54.96
21879;BME280;27908;42.708;23.278;2023-11-19T10:35:54;49682.63;;;-136.69;54.58
21879;BME280;27908;42.708;23.278;2023-11-19T10:38:22;49718.06;;;-136.69;54.05
21879;BME280;27908;42.708;23.278;2023-11-19T10:40:49;49684.59;;;-136.69;54.94
21879;BME280;27908;42.708;23.278;2023-11-19T10:43:16;49700.34;;;-136.69;54.33
21879;BME280;27908;42.708;23.278;2023-11-19T10:45:43;49702.31;;;-136.69;54.82
21879;BME280;27908;42.708;23.278;2023-11-19T10:48:08;49676.72;;;-136.69;54.53
21879;BME280;27908;42.708;23.278;2023-11-19T10:50:39;49700.34;;;-136.69;54.90
21879;BME280;27908;42.708;23.278;2023-11-19T10:53:06;49696.41;;;-136.69;54.87
21879;BME280;27908;42.708;23.278;2023-11-19T10:55:33;49696.41;;;-136.69;53.82
21879;BME280;27908;42.708;23.278;2023-11-19T10:58:04;49739.72;;;-136.69;54.35
21879;BME280;27908;42.708;23.278;2023-11-19T11:00:43;49682.63;;;-136.69;53.78
21879;BME280;27908;42.708;23.278;2023-11-19T11:03:34;49700.34;;;-136.69;53.90
21879;BME280;27908;42.708;23.278;2023-11-19T11:06:03;49690.50;;;-136.69;53.73
21879;BME280;27908;42.708;23.278;2023-11-19T11:08:30;49710.19;;;-136.69;53.65
21879;BME280;27908;42.708;23.278;2023-11-19T11:10:56;49682.63;;;-136.69;52.71
21879;BME280;27908;42.708;23.278;2023-11-19T11:13:24;49708.22;;;-136.69;50.48
21879;BME280;27908;42.708;23.278;2023-11-19T11:15:50;49710.19;;;-136.69;50.56
21879;BME280;27908;42.708;23.278;2023-11-19T11:18:16;49706.25;;;-136.69;51.06
21879;BME280;27908;42.708;23.278;2023-11-19T11:20:45;49686.56;;;-136.69;48.03
21879;BME280;27908;42.708;23.278;2023-11-19T11:23:37;49702.31;;;-136.69;47.47
21879;BME280;27908;42.708;23.278;2023-11-19T11:29:05;49682.63;;;-136.69;47.55
21879;BME280;27908;42.708;23.278;2023-11-19T11:31:59;49714.13;;;-136.69;46.45
21879;BME280;27908;42.708;23.278;2023-11-19T11:39:34;49755.47;;;-136.69;45.16
21879;BME280;27908;42.708;23.278;2023-11-19T11:47:25;49710.19;;;-136.69;45.13
21879;BME280;27908;42.708;23.278;2023-11-19T11:49:51;49698.38;;;-136.69;45.72
21879;BME280;27908;42.708;23.278;2023-11-19T11:52:17;49731.84;;;-136.69;45.77
21879;BME280;27908;42.708;23.278;2023-11-19T11:54:44;49720.03;;;-136.69;45.69
21879;BME280;27908;42.708;23.278;2023-11-19T11:57:13;49745.63;;;-136.69;46.82
21879;BME280;27908;42.708;23.278;2023-11-19T12:02:07;49729.88;;;-136.69;46.12
21879;BME280;27908;42.708;23.278;2023-11-19T12:04:35;49686.56;;;-136.69;45.47
21879;BME280;27908;42.708;23.278;2023-11-19T12:07:13;49694.44;;;-136.69;45.84
21879;BME280;27908;42.708;23.278;2023-11-19T12:09:41;49702.31;;;-136.69;46.05
21879;BME280;27908;42.708;23.278;2023-11-19T12:12:22;49745.63;;;-136.69;45.27
21879;BME280;27908;42.708;23.278;2023-11-19T12:15:04;49723.97;;;-136.69;45.07
21879;BME280;27908;42.708;23.278;2023-11-19T12:20:02;49725.94;;;-136.69;43.64
21879;BME280;27908;42.708;23.278;2023-11-19T12:22:28;49716.09;;;-136.69;45.80
21879;BME280;27908;42.708;23.278;2023-11-19T12:24:54;49708.22;;;-136.69;46.45
21879;BME280;27908;42.708;23.278;2023-11-19T12:27:20;49761.38;;;-136.69;45.50
21879;BME280;27908;42.708;23.278;2023-11-19T12:29:49;49698.38;;;-136.69;46.28
21879;BME280;27908;42.708;23.278;2023-11-19T12:32:15;49739.72;;;-136.69;45.88
21879;BME280;27908;42.708;23.278;2023-11-19T12:34:40;49710.19;;;-136.69;45.45
21879;BME280;27908;42.708;23.278;2023-11-19T12:37:06;49708.22;;;-136.69;44.89
21879;BME280;27908;42.708;23.278;2023-11-19T12:39:32;49741.69;;;-136.69;46.25
21879;BME280;27908;42.708;23.278;2023-11-19T12:41:58;49702.31;;;-136.69;46.28
21879;BME280;27908;42.708;23.278;2023-11-19T12:44:26;49706.25;;;-136.69;45.64
21879;BME280;27908;42.708;23.278;2023-11-19T12:47:05;49720.03;;;-136.69;46.85
21879;BME280;27908;42.708;23.278;2023-11-19T12:49:32;49735.78;;;-136.69;46.68